Time;durP1;ratioP1;P1;durP2;ratioP2;P2;SDS_P1;SDS_P2;PMS_P1;PMS_P2;Temp;Humidity;BMP_temperature;BMP_pressure;BME280_temperature;BME280_humidity;BME280_pressure;Samples;Min_cycle;Max_cycle;Signal;HPM_P1;HPM_P2
2023/07/23 00:00:22;;;;;;;0.20;0.20;;;17.40;99.90;;;;;;4398876;32;20062;-74
2023/07/23 00:02:48;;;;;;;1.80;0.65;;;17.50;99.90;;;;;;4410699;32;20655;-74
2023/07/23 00:05:13;;;;;;;0.90;0.43;;;17.40;99.90;;;;;;4412936;32;20090;-74
2023/07/23 00:07:39;;;;;;;0.52;0.50;;;17.40;99.90;;;;;;4413052;32;20094;-74
2023/07/23 00:10:05;;;;;;;0.50;0.50;;;17.30;99.90;;;;;;4412914;32;20386;-75
2023/07/23 00:12:31;;;;;;;1.17;0.77;;;17.30;99.90;;;;;;4413532;32;20501;-74
2023/07/23 00:14:56;;;;;;;0.50;0.50;;;17.30;99.90;;;;;;4414467;32;20066;-74
2023/07/23 00:17:22;;;;;;;0.90;0.80;;;17.30;99.90;;;;;;4415472;32;20597;-73
2023/07/23 00:19:47;;;;;;;0.40;0.40;;;17.30;99.90;;;;;;4411967;32;20085;-73
2023/07/23 00:22:13;;;;;;;0.43;0.43;;;17.30;99.90;;;;;;4414834;32;20089;-73
2023/07/23 00:24:38;;;;;;;0.40;0.40;;;17.30;99.90;;;;;;4414253;32;20131;-74
2023/07/23 00:27:04;;;;;;;0.90;0.88;;;17.30;99.90;;;;;;4415281;32;20121;-74
2023/07/23 00:29:30;;;;;;;3.30;0.60;;;17.30;99.90;;;;;;4415441;32;20066;-74
2023/07/23 00:31:55;;;;;;;0.60;0.37;;;17.30;99.90;;;;;;4401139;32;20124;-73
2023/07/23 00:34:21;;;;;;;1.42;0.75;;;17.30;99.90;;;;;;4400225;32;20080;-75
2023/07/23 00:36:47;;;;;;;0.40;0.40;;;17.30;99.90;;;;;;4410549;32;20331;-73
2023/07/23 00:39:12;;;;;;;0.50;0.50;;;17.30;99.90;;;;;;4414530;32;20082;-74
2023/07/23 00:41:38;;;;;;;0.50;0.50;;;17.20;99.90;;;;;;4412116;32;20117;-74
2023/07/23 00:44:03;;;;;;;1.17;0.60;;;17.20;99.90;;;;;;4409267;32;20125;-77
2023/07/23 00:46:29;;;;;;;0.40;0.40;;;17.20;99.90;;;;;;4402659;32;20423;-74
2023/07/23 00:48:55;;;;;;;0.68;0.68;;;17.30;99.90;;;;;;4410631;32;20078;-75
2023/07/23 00:51:20;;;;;;;1.58;0.70;;;17.30;99.90;;;;;;4405064;32;20128;-74
2023/07/23 00:53:48;;;;;;;0.50;0.50;;;17.30;99.90;;;;;;4400373;32;20118;-74
2023/07/23 00:56:13;;;;;;;0.40;0.40;;;17.30;99.90;;;;;;4412538;32;20069;-74
2023/07/23 00:58:39;;;;;;;0.62;0.47;;;17.30;99.90;;;;;;4408985;32;20125;-75
2023/07/23 01:01:04;;;;;;;0.75;0.75;;;17.40;99.90;;;;;;4414450;32;20073;-74
2023/07/23 01:03:30;;;;;;;0.70;0.50;;;17.50;99.90;;;;;;4399325;32;20081;-74
2023/07/23 01:06:01;;;;;;;2.22;0.70;;;17.50;99.90;;;;;;4393905;32;20522;-74
2023/07/23 01:08:26;;;;;;;;;;;17.50;99.90;;;;;;4394934;32;20089;-74
2023/07/23 01:10:52;;;;;;;0.60;0.60;;;17.70;99.90;;;;;;4399928;32;19968;-73
2023/07/23 01:13:18;;;;;;;0.55;0.55;;;17.70;99.90;;;;;;4399274;32;20082;-74
2023/07/23 01:15:44;;;;;;;0.70;0.70;;;17.70;99.90;;;;;;4400108;32;20087;-73
2023/07/23 01:18:11;;;;;;;0.50;0.50;;;17.70;99.90;;;;;;4398898;32;20443;-74
2023/07/23 01:20:36;;;;;;;0.60;0.60;;;17.70;99.90;;;;;;4398666;32;20066;-73
2023/07/23 01:23:02;;;;;;;0.93;0.77;;;17.70;99.90;;;;;;4399901;32;20058;-73
2023/07/23 01:25:27;;;;;;;0.30;0.30;;;17.70;99.90;;;;;;4399068;32;20078;-73
2023/07/23 01:27:53;;;;;;;0.82;0.55;;;17.80;99.90;;;;;;4391887;32;20067;-73
2023/07/23 01:30:19;;;;;;;0.30;0.30;;;17.80;99.90;;;;;;4397876;32;20078;-72
2023/07/23 01:32:46;;;;;;;0.30;0.30;;;17.80;99.90;;;;;;4394255;32;20082;-73
2023/07/23 01:35:14;;;;;;;1.48;0.35;;;17.80;99.90;;;;;;4390434;32;20074;-73
2023/07/23 01:37:41;;;;;;;0.82;0.43;;;17.80;99.90;;;;;;4398979;32;20389;-73
2023/07/23 01:40:07;;;;;;;1.17;0.60;;;17.80;99.90;;;;;;4398487;32;20192;-74
2023/07/23 01:42:33;;;;;;;1.17;1.05;;;17.80;99.90;;;;;;4399021;32;20494;-73
2023/07/23 01:45:03;;;;;;;0.35;0.35;;;17.80;99.90;;;;;;4397657;32;20070;-73
2023/07/23 01:47:29;;;;;;;0.40;0.40;;;17.80;99.90;;;;;;4395270;32;20506;-74
2023/07/23 01:49:55;;;;;;;1.87;1.10;;;17.70;99.90;;;;;;4399062;32;20074;-73
2023/07/23 01:52:20;;;;;;;0.57;0.50;;;17.70;99.90;;;;;;4395407;32;20074;-74
2023/07/23 01:54:46;;;;;;;3.85;0.45;;;17.60;99.90;;;;;;4397608;32;20121;-73
2023/07/23 01:57:11;;;;;;;0.40;0.40;;;17.60;99.90;;;;;;4397751;32;20134;-74
2023/07/23 01:59:37;;;;;;;1.35;0.73;;;17.50;99.90;;;;;;4397307;32;20125;-72
2023/07/23 02:02:06;;;;;;;0.70;0.70;;;17.50;99.90;;;;;;4408801;32;20137;-74
2023/07/23 02:04:31;;;;;;;14.30;0.77;;;17.50;99.90;;;;;;4407256;32;20081;-72
2023/07/23 02:06:57;;;;;;;0.98;0.60;;;17.30;99.90;;;;;;4414027;32;20074;-74
2023/07/23 02:09:22;;;;;;;0.50;0.50;;;17.20;99.90;;;;;;4413929;32;20077;-75
2023/07/23 02:11:48;;;;;;;0.70;0.70;;;17.20;99.90;;;;;;4407991;32;20121;-73
2023/07/23 02:14:13;;;;;;;0.47;0.47;;;17.10;99.90;;;;;;4410593;32;20065;-74
2023/07/23 02:16:39;;;;;;;0.65;0.65;;;17.00;99.90;;;;;;4410823;32;20083;-73
2023/07/23 02:19:04;;;;;;;0.50;0.50;;;17.00;99.90;;;;;;4413919;32;20086;-73
2023/07/23 02:21:30;;;;;;;8.93;0.60;;;16.90;99.90;;;;;;4413384;32;20057;-74
2023/07/23 02:23:56;;;;;;;0.40;0.40;;;16.90;99.90;;;;;;4412686;32;20116;-73
2023/07/23 02:26:21;;;;;;;0.43;0.43;;;17.00;99.90;;;;;;4400443;32;20078;-73
2023/07/23 02:28:47;;;;;;;0.73;0.73;;;17.00;99.90;;;;;;4402533;32;20066;-73
2023/07/23 02:31:12;;;;;;;0.43;0.43;;;17.00;99.90;;;;;;4409552;32;20091;-73
2023/07/23 02:33:38;;;;;;;1.55;0.60;;;17.00;99.90;;;;;;4402023;32;20124;-73
2023/07/23 02:36:03;;;;;;;0.65;0.50;;;16.90;99.90;;;;;;4407093;32;20530;-73
2023/07/23 02:38:29;;;;;;;2.25;0.40;;;16.90;99.90;;;;;;4409217;32;20082;-73
2023/07/23 02:40:56;;;;;;;0.40;0.40;;;16.80;99.90;;;;;;4401396;32;20116;-74
2023/07/23 02:43:22;;;;;;;0.40;0.40;;;16.60;99.90;;;;;;4401428;32;20069;-73
2023/07/23 02:45:47;;;;;;;1.23;0.73;;;16.50;99.90;;;;;;4408953;32;20123;-73
2023/07/23 02:48:12;;;;;;;1.08;1.02;;;16.50;99.90;;;;;;4398955;32;20086;-73
2023/07/23 02:50:39;;;;;;;0.60;0.60;;;16.40;99.90;;;;;;4399130;32;20470;-74
2023/07/23 02:53:05;;;;;;;0.37;0.37;;;16.30;99.90;;;;;;4410072;32;20435;-74
2023/07/23 02:55:31;;;;;;;0.73;0.73;;;16.30;99.90;;;;;;4404870;32;20066;-74
2023/07/23 02:57:57;;;;;;;2.53;0.50;;;16.10;99.90;;;;;;4410978;32;20131;-74
2023/07/23 03:00:23;;;;;;;0.40;0.40;;;16.20;99.90;;;;;;4408141;32;20124;-75
2023/07/23 03:02:49;;;;;;;0.60;0.55;;;16.20;99.90;;;;;;4413144;32;20073;-76
2023/07/23 03:05:15;;;;;;;0.62;0.60;;;16.20;99.90;;;;;;4414019;32;20132;-72
2023/07/23 03:07:40;;;;;;;3.30;0.65;;;16.20;99.90;;;;;;4407728;32;20081;-73
2023/07/23 03:10:06;;;;;;;0.52;0.52;;;16.20;99.90;;;;;;4404878;32;20082;-72
2023/07/23 03:12:32;;;;;;;0.40;0.40;;;16.20;99.90;;;;;;4408012;32;20073;-74
2023/07/23 03:14:58;;;;;;;1.75;0.82;;;16.30;99.90;;;;;;4409769;32;20078;-74
2023/07/23 03:17:24;;;;;;;1.02;0.73;;;16.30;99.90;;;;;;4404607;32;20071;-74
2023/07/23 03:19:49;;;;;;;0.50;0.50;;;16.30;99.90;;;;;;4398045;32;20069;-75
2023/07/23 03:22:15;;;;;;;0.50;0.50;;;16.30;99.90;;;;;;4406913;32;20120;-73
2023/07/23 03:24:40;;;;;;;0.40;0.40;;;16.20;99.90;;;;;;4413415;32;20117;-74
2023/07/23 03:27:06;;;;;;;1.05;0.50;;;16.20;99.90;;;;;;4408119;32;20499;-74
2023/07/23 03:29:31;;;;;;;0.82;0.82;;;16.20;99.90;;;;;;4398284;32;20081;-75
2023/07/23 03:31:57;;;;;;;0.88;0.55;;;16.30;99.90;;;;;;4404718;32;20173;-74
2023/07/23 03:34:22;;;;;;;2.05;0.55;;;16.40;99.90;;;;;;4406477;32;20069;-76
2023/07/23 03:36:48;;;;;;;1.00;0.90;;;16.50;99.90;;;;;;4413481;32;20086;-73
2023/07/23 03:39:16;;;;;;;0.50;0.50;;;16.50;99.90;;;;;;4409320;32;20058;-75
2023/07/23 03:41:43;;;;;;;0.50;0.50;;;16.50;99.90;;;;;;4405224;32;20533;-73
2023/07/23 03:44:08;;;;;;;0.65;0.55;;;16.60;99.90;;;;;;4413299;32;20066;-73
2023/07/23 03:46:42;;;;;;;0.57;0.52;;;16.50;99.90;;;;;;4400059;32;20539;-74
2023/07/23 03:49:07;;;;;;;0.98;0.73;;;16.40;99.90;;;;;;4398590;32;20065;-74
2023/07/23 03:51:32;;;;;;;0.37;0.37;;;16.50;99.90;;;;;;4415604;32;20078;-74
2023/07/23 03:53:58;;;;;;;0.45;0.45;;;16.50;99.90;;;;;;4412215;32;20079;-73
2023/07/23 03:56:23;;;;;;;0.70;0.70;;;16.50;99.90;;;;;;4413104;32;20069;-74
2023/07/23 03:58:49;;;;;;;0.77;0.65;;;16.50;99.90;;;;;;4412921;32;20073;-74
2023/07/23 04:01:14;;;;;;;0.55;0.55;;;16.40;99.90;;;;;;4412312;32;20424;-73
2023/07/23 04:03:40;;;;;;;0.57;0.57;;;16.30;99.90;;;;;;4412873;32;20077;-73
2023/07/23 04:06:05;;;;;;;4.05;1.55;;;16.30;99.90;;;;;;4413070;32;20066;-74
2023/07/23 04:08:31;;;;;;;0.50;0.50;;;16.20;99.90;;;;;;4412633;32;20121;-75
2023/07/23 04:10:56;;;;;;;1.33;1.08;;;16.20;99.90;;;;;;4398984;32;20081;-73
2023/07/23 04:13:22;;;;;;;0.40;0.40;;;16.30;99.90;;;;;;4412929;32;20088;-72
2023/07/23 04:15:47;;;;;;;0.30;0.30;;;16.40;99.90;;;;;;4412997;32;20082;-74
2023/07/23 04:18:13;;;;;;;0.75;0.60;;;16.40;99.90;;;;;;4413088;32;20120;-72
2023/07/23 04:20:40;;;;;;;0.47;0.47;;;16.40;99.90;;;;;;4413112;32;20073;-73
2023/07/23 04:23:05;;;;;;;0.75;0.75;;;16.40;99.90;;;;;;4413094;32;20086;-73
2023/07/23 04:25:31;;;;;;;0.40;0.40;;;16.30;99.90;;;;;;4412317;32;20501;-73
2023/07/23 04:27:56;;;;;;;0.52;0.52;;;16.30;99.90;;;;;;4410761;32;20447;-74
2023/07/23 04:30:26;;;;;;;0.50;0.43;;;16.20;99.90;;;;;;4410333;32;20066;-74
2023/07/23 04:32:51;;;;;;;0.47;0.47;;;16.30;99.90;;;;;;4411689;32;20070;-74
2023/07/23 04:35:17;;;;;;;0.40;0.40;;;16.50;99.90;;;;;;4412654;32;20066;-75
2023/07/23 04:37:42;;;;;;;0.30;0.30;;;16.50;99.90;;;;;;4412643;32;20196;-73
2023/07/23 04:40:08;;;;;;;0.50;0.50;;;16.50;99.90;;;;;;4412274;32;20070;-75
2023/07/23 04:42:34;;;;;;;0.47;0.47;;;16.50;99.90;;;;;;4411848;32;20095;-74
2023/07/23 04:44:59;;;;;;;1.30;0.85;;;16.60;99.90;;;;;;4411932;32;20062;-73
2023/07/23 04:47:25;;;;;;;0.45;0.45;;;16.50;99.90;;;;;;4409618;32;20069;-73
2023/07/23 04:49:50;;;;;;;0.50;0.50;;;16.50;99.90;;;;;;4412667;32;20069;-73
2023/07/23 04:52:16;;;;;;;1.17;0.70;;;16.40;99.90;;;;;;4411875;32;20415;-73
2023/07/23 04:54:42;;;;;;;0.30;0.30;;;16.50;99.90;;;;;;4399099;32;20066;-74
2023/07/23 04:57:07;;;;;;;1.65;0.82;;;16.50;99.90;;;;;;4398632;32;20086;-73
2023/07/23 04:59:35;;;;;;;0.47;0.47;;;16.60;99.90;;;;;;4402690;32;20462;-74
2023/07/23 05:02:00;;;;;;;0.52;0.52;;;16.50;99.90;;;;;;4414300;32;20199;-75
2023/07/23 05:04:26;;;;;;;0.50;0.50;;;16.50;99.90;;;;;;4406843;32;20066;-73
2023/07/23 05:06:52;;;;;;;0.55;0.55;;;16.60;99.90;;;;;;4403260;32;20062;-74
2023/07/23 05:09:18;;;;;;;1.85;0.73;;;16.50;99.90;;;;;;4414832;32;20061;-75
2023/07/23 05:11:43;;;;;;;2.92;0.60;;;16.60;99.90;;;;;;4415153;32;20200;-74
2023/07/23 05:14:09;;;;;;;0.40;0.40;;;16.70;99.90;;;;;;4415003;32;20066;-73
2023/07/23 05:16:34;;;;;;;0.40;0.40;;;16.80;99.90;;;;;;4406288;32;20173;-73
2023/07/23 05:19:00;;;;;;;1.20;0.85;;;16.70;99.90;;;;;;4414879;32;20073;-75
2023/07/23 05:21:25;;;;;;;1.12;0.90;;;16.70;99.90;;;;;;4421479;32;20470;-73
2023/07/23 05:23:51;;;;;;;0.50;0.50;;;16.60;99.90;;;;;;4415581;32;20061;-73
2023/07/23 05:26:16;;;;;;;0.52;0.52;;;16.60;99.90;;;;;;4414914;32;20446;-74
2023/07/23 05:28:42;;;;;;;0.40;0.40;;;16.70;99.90;;;;;;4414727;32;20553;-75
2023/07/23 05:31:07;;;;;;;0.40;0.40;;;16.80;99.90;;;;;;4418416;32;20113;-72
2023/07/23 05:33:33;;;;;;;3.08;1.17;;;16.80;99.90;;;;;;4409875;32;20139;-74
2023/07/23 05:35:58;;;;;;;0.57;0.57;;;16.80;99.90;;;;;;4398621;32;20120;-74
2023/07/23 05:38:26;;;;;;;0.50;0.50;;;16.80;99.90;;;;;;4408185;32;20062;-73
2023/07/23 05:40:53;;;;;;;0.50;0.50;;;16.70;99.90;;;;;;4414357;32;20444;-74
2023/07/23 05:43:19;;;;;;;2.08;0.60;;;16.80;99.90;;;;;;4410470;32;20085;-74
2023/07/23 05:45:44;;;;;;;0.93;0.55;;;16.80;99.90;;;;;;4414252;32;20117;-74
2023/07/23 05:48:10;;;;;;;1.25;0.50;;;16.80;99.90;;;;;;4414637;32;20070;-74
2023/07/23 05:50:35;;;;;;;1.10;0.82;;;16.90;99.90;;;;;;4406638;32;20077;-72
2023/07/23 05:53:01;;;;;;;0.88;0.88;;;17.00;99.90;;;;;;4411423;32;20458;-75
2023/07/23 05:55:26;;;;;;;0.70;0.70;;;17.00;99.90;;;;;;4415449;32;20073;-73
2023/07/23 05:57:52;;;;;;;0.37;0.37;;;16.90;99.90;;;;;;4414642;32;20053;-74
2023/07/23 06:00:18;;;;;;;0.57;0.57;;;17.00;99.90;;;;;;4412760;32;20081;-73
2023/07/23 06:02:43;;;;;;;1.00;0.62;;;17.10;99.90;;;;;;4412324;32;20065;-73
2023/07/23 06:05:09;;;;;;;1.85;0.88;;;17.00;99.90;;;;;;4406820;32;20081;-74
2023/07/23 06:07:34;;;;;;;0.40;0.40;;;17.10;99.90;;;;;;4414478;32;20521;-74
2023/07/23 06:10:00;;;;;;;0.65;0.60;;;17.10;99.90;;;;;;4399756;32;20129;-74
2023/07/23 06:12:27;;;;;;;0.57;0.50;;;17.30;99.90;;;;;;4416309;32;20065;-73
2023/07/23 06:14:52;;;;;;;0.60;0.60;;;17.30;99.90;;;;;;4413905;32;20108;-76
2023/07/23 06:17:18;;;;;;;0.75;0.50;;;17.40;99.90;;;;;;4412999;32;20069;-74
2023/07/23 06:19:44;;;;;;;1.70;0.65;;;17.40;99.90;;;;;;4414017;32;20081;-74
2023/07/23 06:22:09;;;;;;;1.45;0.50;;;17.50;99.90;;;;;;4406921;32;20408;-74
2023/07/23 06:24:35;;;;;;;0.40;0.40;;;17.50;99.90;;;;;;4399637;32;20069;-74
2023/07/23 06:27:00;;;;;;;0.55;0.55;;;17.50;99.90;;;;;;4412916;32;20106;-74
2023/07/23 06:29:26;;;;;;;0.30;0.30;;;17.70;99.90;;;;;;4406695;32;20323;-75
2023/07/23 06:31:52;;;;;;;0.65;0.50;;;17.80;99.90;;;;;;4412381;32;20066;-74
2023/07/23 06:34:19;;;;;;;0.65;0.37;;;17.80;99.90;;;;;;4413940;32;20126;-75
2023/07/23 06:36:45;;;;;;;0.70;0.70;;;17.90;99.90;;;;;;4414009;32;20542;-74
2023/07/23 06:39:11;;;;;;;0.80;0.65;;;17.90;99.90;;;;;;4413692;32;20066;-73
2023/07/23 06:41:37;;;;;;;0.40;0.40;;;17.90;99.90;;;;;;4413200;32;20138;-74
2023/07/23 06:44:02;;;;;;;2.65;0.60;;;17.90;99.90;;;;;;4413573;32;20065;-75
2023/07/23 06:46:28;;;;;;;0.70;0.70;;;17.90;99.90;;;;;;4411280;32;20073;-73
2023/07/23 06:48:53;;;;;;;0.60;0.60;;;18.00;99.90;;;;;;4406003;32;20486;-73
2023/07/23 06:51:19;;;;;;;0.40;0.40;;;18.00;99.90;;;;;;4404704;32;20135;-74
2023/07/23 06:53:44;;;;;;;0.55;0.55;;;18.10;99.90;;;;;;4392052;32;20208;-73
2023/07/23 06:56:12;;;;;;;0.52;0.52;;;18.10;99.90;;;;;;4398920;32;20132;-74
2023/07/23 06:58:38;;;;;;;0.73;0.70;;;18.20;99.90;;;;;;4398781;32;20091;-73
2023/07/23 07:01:07;;;;;;;0.40;0.40;;;18.40;99.90;;;;;;4403978;32;20066;-74
2023/07/23 07:03:32;;;;;;;8.20;1.35;;;18.60;99.90;;;;;;4412549;32;20081;-74
2023/07/23 07:05:59;;;;;;;0.40;0.40;;;18.80;99.90;;;;;;4413269;32;20399;-74
2023/07/23 07:08:27;;;;;;;2.15;0.75;;;18.70;99.90;;;;;;4413653;32;20062;-75
2023/07/23 07:10:58;;;;;;;0.55;0.55;;;18.70;99.90;;;;;;4410424;32;20070;-74
2023/07/23 07:13:24;;;;;;;0.50;0.50;;;18.70;99.90;;;;;;4411768;32;20061;-74
2023/07/23 07:15:49;;;;;;;0.43;0.43;;;18.90;99.90;;;;;;4413380;32;20081;-73
2023/07/23 07:18:14;;;;;;;0.40;0.40;;;19.00;99.90;;;;;;4413342;32;20427;-72
2023/07/23 07:20:40;;;;;;;0.40;0.40;;;19.20;99.90;;;;;;4411669;32;20058;-73
2023/07/23 07:23:05;;;;;;;0.47;0.47;;;19.30;99.90;;;;;;4408731;32;20362;-74
2023/07/23 07:25:31;;;;;;;0.60;0.60;;;19.30;99.90;;;;;;4398542;32;20538;-75
2023/07/23 07:27:57;;;;;;;0.40;0.40;;;19.40;99.90;;;;;;4398199;32;20070;-73
2023/07/23 07:30:22;;;;;;;1.00;0.77;;;19.60;99.90;;;;;;4398128;32;20062;-74
2023/07/23 07:32:47;;;;;;;0.50;0.50;;;19.80;99.90;;;;;;4412211;32;20480;-75
2023/07/23 07:35:13;;;;;;;0.40;0.40;;;19.80;99.90;;;;;;4412847;32;20061;-74
2023/07/23 07:37:38;;;;;;;0.30;0.30;;;20.00;99.90;;;;;;4397802;32;20108;-73
2023/07/23 07:40:05;;;;;;;0.55;0.47;;;20.00;99.90;;;;;;4415457;32;20074;-74
2023/07/23 07:42:30;;;;;;;3.97;0.82;;;20.10;99.90;;;;;;4415386;32;20062;-73
2023/07/23 07:44:56;;;;;;;0.90;0.80;;;20.20;99.90;;;;;;4412651;32;20090;-74
2023/07/23 07:47:21;;;;;;;0.30;0.30;;;20.20;99.90;;;;;;4409490;32;20077;-73
2023/07/23 07:49:51;;;;;;;0.88;0.55;;;20.20;99.90;;;;;;4413037;32;20066;-74
2023/07/23 07:52:17;;;;;;;1.25;0.52;;;20.30;99.90;;;;;;4409316;32;20078;-74
2023/07/23 07:54:42;;;;;;;0.40;0.40;;;20.30;99.90;;;;;;4412705;32;20572;-74
2023/07/23 07:57:09;;;;;;;1.20;0.82;;;20.40;99.90;;;;;;4413082;32;20836;-74
2023/07/23 07:59:34;;;;;;;0.68;0.47;;;20.50;99.90;;;;;;4413234;32;20061;-74
2023/07/23 08:02:01;;;;;;;0.47;0.47;;;20.60;99.90;;;;;;4413158;32;20086;-74
2023/07/23 08:04:27;;;;;;;0.77;0.35;;;20.70;99.90;;;;;;4412909;32;20513;-74
2023/07/23 08:06:53;;;;;;;0.68;0.50;;;20.70;99.90;;;;;;4412819;32;20085;-72
2023/07/23 08:09:22;;;;;;;1.55;0.85;;;20.70;99.90;;;;;;4412828;32;20806;-74
2023/07/23 08:11:48;;;;;;;0.30;0.30;;;20.70;99.90;;;;;;4412786;32;20066;-73
2023/07/23 08:14:14;;;;;;;0.60;0.60;;;20.70;99.90;;;;;;4412855;32;20086;-74
2023/07/23 08:16:41;;;;;;;1.37;0.95;;;20.70;99.90;;;;;;4411945;32;20089;-74
2023/07/23 08:19:08;;;;;;;0.43;0.43;;;20.80;99.90;;;;;;4410536;32;21378;-74
2023/07/23 08:21:33;;;;;;;0.40;0.40;;;20.90;99.90;;;;;;4403714;32;20087;-74
2023/07/23 08:23:59;;;;;;;1.02;0.95;;;20.90;99.90;;;;;;4413272;32;20066;-72
2023/07/23 08:26:26;;;;;;;0.40;0.40;;;21.00;99.90;;;;;;4412835;32;20077;-73
2023/07/23 08:28:58;;;;;;;1.33;0.57;;;21.00;99.90;;;;;;4413071;32;20078;-73
2023/07/23 08:31:24;;;;;;;0.70;0.50;;;21.10;99.90;;;;;;4414434;32;20074;-73
2023/07/23 08:33:52;;;;;;;0.30;0.30;;;21.10;99.90;;;;;;4413376;32;20069;-74
2023/07/23 08:36:18;;;;;;;0.70;0.60;;;21.10;99.90;;;;;;4404126;32;20081;-74
2023/07/23 08:38:44;;;;;;;0.70;0.70;;;21.20;99.90;;;;;;4411892;32;20483;-74
2023/07/23 08:41:21;;;;;;;0.47;0.47;;;21.20;99.90;;;;;;4415317;32;20070;-73
2023/07/23 08:44:26;;;;;;;0.35;0.35;;;21.10;99.90;;;;;;4415301;32;20066;-74
2023/07/23 08:47:06;;;;;;;1.15;0.70;;;21.10;99.90;;;;;;4395224;32;20069;-72
2023/07/23 08:49:33;;;;;;;0.60;0.60;;;21.20;99.90;;;;;;4414732;32;20129;-74
2023/07/23 08:51:59;;;;;;;2.62;0.88;;;21.00;99.90;;;;;;4414366;32;20099;-73
2023/07/23 08:54:25;;;;;;;0.50;0.50;;;21.10;99.90;;;;;;4415457;32;20062;-73
2023/07/23 08:56:51;;;;;;;0.55;0.50;;;21.10;99.90;;;;;;4415298;32;20170;-74
2023/07/23 08:59:18;;;;;;;0.30;0.30;;;21.20;99.90;;;;;;4415231;32;20069;-73
2023/07/23 09:01:44;;;;;;;1.55;0.60;;;21.30;99.90;;;;;;4414724;32;20097;-74
2023/07/23 09:04:11;;;;;;;0.47;0.47;;;21.40;99.90;;;;;;4415273;32;20121;-74
2023/07/23 09:06:39;;;;;;;0.40;0.32;;;21.40;99.90;;;;;;4414586;32;20272;-73
2023/07/23 09:09:09;;;;;;;0.20;0.20;;;21.50;99.90;;;;;;4415092;32;20061;-73
2023/07/23 09:11:36;;;;;;;0.50;0.50;;;21.60;99.90;;;;;;4414762;32;20093;-75
2023/07/23 09:14:07;;;;;;;1.80;1.05;;;21.80;99.90;;;;;;4415031;32;20086;-74
2023/07/23 09:16:36;;;;;;;0.98;0.35;;;21.80;99.90;;;;;;4415119;32;20061;-73
2023/07/23 09:19:01;;;;;;;1.45;0.80;;;21.90;99.90;;;;;;4407961;32;20066;-73
2023/07/23 09:21:27;;;;;;;1.25;0.40;;;21.90;99.90;;;;;;4421384;32;20101;-74
2023/07/23 09:23:54;;;;;;;4.10;1.02;;;22.00;99.90;;;;;;4416408;32;20122;-75
2023/07/23 09:26:24;;;;;;;1.55;0.55;;;21.80;99.90;;;;;;4418992;32;20061;-74
2023/07/23 09:28:51;;;;;;;0.10;0.10;;;21.90;99.90;;;;;;4420612;32;20065;-75
2023/07/23 09:31:27;;;;;;;0.43;0.37;;;22.10;99.90;;;;;;4398751;32;20142;-73
2023/07/23 09:33:54;;;;;;;2.40;0.30;;;22.40;99.90;;;;;;4401118;32;20075;-74
2023/07/23 09:36:22;;;;;;;1.55;0.93;;;22.60;99.90;;;;;;4408324;32;20077;-74
2023/07/23 09:39:05;;;;;;;0.40;0.40;;;22.80;99.90;;;;;;4414771;32;20070;-74
2023/07/23 09:41:34;;;;;;;1.20;0.80;;;22.80;99.90;;;;;;4406851;32;20081;-73
2023/07/23 09:44:04;;;;;;;1.42;0.80;;;22.80;99.90;;;;;;4403598;32;20506;-73
2023/07/23 09:46:30;;;;;;;0.25;0.25;;;22.90;99.90;;;;;;4405417;32;20069;-73
2023/07/23 09:48:56;;;;;;;0.20;0.20;;;23.10;99.90;;;;;;4414079;32;20082;-73
2023/07/23 09:51:22;;;;;;;0.30;0.30;;;23.10;99.90;;;;;;4414732;32;20457;-73
2023/07/23 09:53:47;;;;;;;0.15;0.15;;;23.30;99.90;;;;;;4414278;32;20116;-74
2023/07/23 09:56:15;;;;;;;0.20;0.20;;;23.50;99.90;;;;;;4405282;32;20590;-73
2023/07/23 09:58:43;;;;;;;1.05;0.50;;;23.60;99.40;;;;;;4399198;32;20082;-73
2023/07/23 10:01:09;;;;;;;0.30;0.30;;;23.80;98.80;;;;;;4399759;32;20422;-73
2023/07/23 10:03:36;;;;;;;0.37;0.37;;;23.80;98.30;;;;;;4414292;32;20406;-74
2023/07/23 10:06:02;;;;;;;0.37;0.37;;;23.90;98.10;;;;;;4415260;32;20065;-74
2023/07/23 10:08:30;;;;;;;0.20;0.20;;;24.10;97.70;;;;;;4409961;32;20062;-73
2023/07/23 10:10:56;;;;;;;0.30;0.30;;;24.00;98.00;;;;;;4413625;32;20082;-72
2023/07/23 10:13:22;;;;;;;0.30;0.30;;;24.20;98.00;;;;;;4414459;32;20062;-74
2023/07/23 10:15:50;;;;;;;0.80;0.40;;;24.30;97.80;;;;;;4414488;32;20083;-73
2023/07/23 10:18:17;;;;;;;1.05;0.75;;;24.50;98.10;;;;;;4402044;32;20062;-73
2023/07/23 10:20:44;;;;;;;0.10;0.10;;;24.70;98.30;;;;;;4402660;32;20124;-74
2023/07/23 10:23:10;;;;;;;0.62;0.60;;;24.60;98.00;;;;;;4411938;32;20078;-74
2023/07/23 10:25:35;;;;;;;0.40;0.40;;;24.50;98.50;;;;;;4413445;32;20379;-73
2023/07/23 10:28:04;;;;;;;0.40;0.40;;;24.70;97.60;;;;;;4409544;32;20283;-73
2023/07/23 10:30:31;;;;;;;0.30;0.30;;;24.70;97.20;;;;;;4412254;32;20058;-72
2023/07/23 10:33:14;;;;;;;0.20;0.20;;;24.60;97.30;;;;;;4406989;32;20065;-73
2023/07/23 10:35:58;;;;;;;0.28;0.28;;;24.60;97.60;;;;;;4410561;32;20086;-73
2023/07/23 10:38:26;;;;;;;0.25;0.25;;;24.70;97.80;;;;;;4414118;32;20136;-74
2023/07/23 10:40:52;;;;;;;0.30;0.30;;;24.90;97.70;;;;;;4413699;32;20081;-73
2023/07/23 10:43:17;;;;;;;0.28;0.28;;;24.90;97.40;;;;;;4413707;32;20487;-74
2023/07/23 10:45:49;;;;;;;0.45;0.45;;;25.00;97.40;;;;;;4401382;32;20074;-74
2023/07/23 10:48:17;;;;;;;1.20;0.70;;;25.20;98.50;;;;;;4409491;32;20062;-74
2023/07/23 10:51:00;;;;;;;0.25;0.25;;;24.90;97.20;;;;;;4406030;32;20073;-75
2023/07/23 10:53:30;;;;;;;0.10;0.10;;;25.00;97.30;;;;;;4408072;32;20089;-75
2023/07/23 10:55:59;;;;;;;0.17;0.17;;;25.20;97.50;;;;;;4405391;32;20075;-74
2023/07/23 10:58:27;;;;;;;0.28;0.28;;;25.20;96.70;;;;;;4398262;32;20471;-73
2023/07/23 11:00:55;;;;;;;0.35;0.35;;;25.10;96.60;;;;;;4398891;32;20113;-75
2023/07/23 11:03:22;;;;;;;0.28;0.22;;;25.10;97.80;;;;;;4409969;32;20074;-74
2023/07/23 11:05:49;;;;;;;0.10;0.10;;;25.20;96.90;;;;;;4412276;32;20065;-73
2023/07/23 11:08:17;;;;;;;1.37;0.30;;;25.20;96.30;;;;;;4413208;32;20089;-74
2023/07/23 11:11:00;;;;;;;0.52;0.45;;;25.40;96.40;;;;;;4400395;32;20070;-74
2023/07/23 11:13:28;;;;;;;0.80;0.43;;;25.10;96.30;;;;;;4413467;32;20505;-74
2023/07/23 11:15:54;;;;;;;0.10;0.10;;;25.20;96.50;;;;;;4413655;32;20074;-73
2023/07/23 11:18:20;;;;;;;1.45;0.90;;;25.70;96.10;;;;;;4413173;32;20070;-74
2023/07/23 11:20:48;;;;;;;0.30;0.30;;;25.90;95.80;;;;;;4413556;32;20086;-75
2023/07/23 11:23:16;;;;;;;1.60;0.73;;;26.20;96.00;;;;;;4413230;32;20089;-74
2023/07/23 11:25:41;;;;;;;0.32;0.32;;;26.30;95.60;;;;;;4413104;32;20077;-74
2023/07/23 11:28:07;;;;;;;0.22;0.22;;;26.50;94.80;;;;;;4412517;32;20069;-74
2023/07/23 11:30:33;;;;;;;1.45;0.65;;;26.50;94.40;;;;;;4413085;32;20065;-72
2023/07/23 11:33:02;;;;;;;2.62;0.68;;;26.70;94.60;;;;;;4413242;32;20069;-74
2023/07/23 11:35:28;;;;;;;0.98;0.50;;;26.60;93.90;;;;;;4413194;32;20070;-74
2023/07/23 11:37:54;;;;;;;0.28;0.28;;;26.50;94.20;;;;;;4413346;32;20505;-73
2023/07/23 11:40:21;;;;;;;0.10;0.10;;;26.30;93.70;;;;;;4413333;32;20078;-73
2023/07/23 11:42:46;;;;;;;0.20;0.20;;;26.30;93.90;;;;;;4413352;32;20536;-73
2023/07/23 11:45:12;;;;;;;0.80;0.62;;;26.40;93.00;;;;;;4413298;32;20065;-73
2023/07/23 11:47:48;;;;;;;0.60;0.40;;;26.30;91.90;;;;;;4409971;32;106323;-73
2023/07/23 11:50:14;;;;;;;0.10;0.10;;;26.40;92.20;;;;;;4402863;32;20054;-72
2023/07/23 11:52:40;;;;;;;0.30;0.20;;;26.50;91.80;;;;;;4398004;32;20065;-74
2023/07/23 11:55:17;;;;;;;0.20;0.20;;;26.90;91.40;;;;;;4410647;32;20082;-74
2023/07/23 11:57:43;;;;;;;0.20;0.20;;;27.30;91.20;;;;;;4406142;32;20141;-74
2023/07/23 12:00:09;;;;;;;0.50;0.30;;;27.40;91.00;;;;;;4400068;32;20067;-75
2023/07/23 12:02:34;;;;;;;0.10;0.10;;;27.60;90.90;;;;;;4413342;32;20079;-73
2023/07/23 12:05:00;;;;;;;0.80;0.60;;;27.90;90.00;;;;;;4413094;32;20066;-75
2023/07/23 12:07:28;;;;;;;0.30;0.30;;;27.90;90.20;;;;;;4412960;32;20074;-73
2023/07/23 12:09:53;;;;;;;0.62;0.35;;;27.80;90.10;;;;;;4414565;32;20121;-75
2023/07/23 12:12:22;;;;;;;0.20;0.20;;;27.80;90.10;;;;;;4412585;32;20066;-74
2023/07/23 12:15:01;;;;;;;0.30;0.30;;;27.80;90.40;;;;;;4404888;32;20074;-74
2023/07/23 12:17:27;;;;;;;0.13;0.13;;;27.90;87.30;;;;;;4406241;32;20124;-73
2023/07/23 12:19:52;;;;;;;0.00;0.00;;;27.90;86.10;;;;;;4415501;32;20066;-75
2023/07/23 12:22:18;;;;;;;0.10;0.10;;;27.90;85.50;;;;;;4415833;32;20492;-74
2023/07/23 12:24:44;;;;;;;0.60;0.20;;;27.80;83.80;;;;;;4415621;32;20181;-72
2023/07/23 12:27:09;;;;;;;0.10;0.10;;;27.70;83.80;;;;;;4415495;32;20081;-74
2023/07/23 12:29:41;;;;;;;0.25;0.25;;;27.60;82.90;;;;;;4414820;32;20564;-73
2023/07/23 12:32:09;;;;;;;0.10;0.10;;;27.50;83.00;;;;;;4397780;32;20530;-73
2023/07/23 12:34:35;;;;;;;1.17;0.80;;;27.40;83.90;;;;;;4413639;32;20120;-74
2023/07/23 12:37:00;;;;;;;2.08;0.43;;;27.30;83.50;;;;;;4409125;32;20160;-75
2023/07/23 12:39:26;;;;;;;0.10;0.10;;;27.30;84.40;;;;;;4413799;32;20420;-74
2023/07/23 12:41:51;;;;;;;0.00;0.00;;;27.30;83.20;;;;;;4414407;32;20074;-74
2023/07/23 12:44:18;;;;;;;0.13;0.13;;;27.30;83.40;;;;;;4415054;32;20505;-74